This is the latest recevied weather packets stored in our database for station/object KB1JLI. If no packets are shown the sender has not sent any weather packets the latest 10 day(s).
| Time | Temp. | Humidity | Pressure | Rain* | Wind** | Luminosity | Snow |
|---|---|---|---|---|---|---|---|
| 1777564544 | 9.44° C | 98% | 1007 hPa | 4.32 mm | - | 84 W/m² | - |
| 1777564240 | 8.89° C | 97% | 1007 hPa | 3.05 mm | - | 105 W/m² | - |
| 1777563937 | 8.89° C | 97% | 1006.9 hPa | 1.78 mm | - | 109 W/m² | - |
| 1777563633 | 8.89° C | 97% | 1007.2 hPa | 1.78 mm | - | 90 W/m² | - |
| 1777563333 | 8.89° C | 97% | 1007.2 hPa | 1.78 mm | - | 114 W/m² | - |
| 1777563029 | 8.89° C | 97% | 1007.5 hPa | 1.78 mm | - | 90 W/m² | - |
| 1777562724 | 8.89° C | 97% | 1007.5 hPa | 1.27 mm | - | 95 W/m² | - |
| 1777562418 | 8.89° C | 97% | 1007.6 hPa | 3.05 mm | - | 79 W/m² | - |
| 1777562115 | 8.89° C | 98% | 1007.7 hPa | 1.78 mm | - | 72 W/m² | - |
| 1777561813 | 8.89° C | 98% | 1007.5 hPa | 0 mm | - | 68 W/m² | - |
| 1777561509 | 8.89° C | 98% | 1007.8 hPa | 0 mm | - | 85 W/m² | - |
| 1777561204 | 8.89° C | 98% | 1007.6 hPa | 0 mm | - | 63 W/m² | - |
| 1777560898 | 8.89° C | 98% | 1007.6 hPa | 0 mm | - | 51 W/m² | - |
| 1777560596 | 8.89° C | 98% | 1007.4 hPa | 0 mm | - | 70 W/m² | - |
| 1777560294 | 8.89° C | 98% | 1007.7 hPa | 0 mm | - | 75 W/m² | - |
| 1777559991 | 8.33° C | 98% | 1007.8 hPa | 0 mm | - | 70 W/m² | - |
| 1777559691 | 8.33° C | 98% | 1008 hPa | 0 mm | - | 86 W/m² | - |
| 1777559389 | 8.33° C | 98% | 1007.6 hPa | 1.27 mm | - | 149 W/m² | - |
| 1777559085 | 8.33° C | 98% | 1008 hPa | 3.05 mm | - | 83 W/m² | - |
| 1777558785 | 8.33° C | 98% | 1007.9 hPa | 1.78 mm | - | 101 W/m² | - |
| 1777558481 | 8.33° C | 98% | 1008 hPa | 1.27 mm | - | 90 W/m² | - |
| 1777558178 | 8.33° C | 98% | 1007.9 hPa | 3.05 mm | - | 93 W/m² | - |
| 1777557874 | 8.33° C | 98% | 1008.1 hPa | 3.05 mm | - | 86 W/m² | - |
| 1777557571 | 8.33° C | 98% | 1008.2 hPa | 3.05 mm | - | 82 W/m² | - |
| 1777557267 | 7.78° C | 98% | 1008.1 hPa | 1.78 mm | - | 68 W/m² | - |
* Rain latest hour (hover to see other rain measurements)
** Current wind speed in m/s (hover to see current wind gust speed)